Time;durP1;ratioP1;P1;durP2;ratioP2;P2;SDS_P1;SDS_P2;PMS_P1;PMS_P2;Temp;Humidity;BMP_temperature;BMP_pressure;BME280_temperature;BME280_humidity;BME280_pressure;Samples;Min_cycle;Max_cycle;Signal;HPM_P1;HPM_P2
2021/07/20 00:00:23;;;;;;;10.77;6.63;;;;;;;;;;4691991;30;20041;-85
2021/07/20 00:02:50;;;;;;;11.68;7.10;;;;;;;;;;4677784;30;20376;-85
2021/07/20 00:05:21;;;;;;;10.40;6.65;;;;;;;;;;4679520;30;20037;-85
2021/07/20 00:07:48;;;;;;;11.23;7.38;;;;;;;;;;4671286;30;20108;-85
2021/07/20 00:10:20;;;;;;;12.40;7.40;;;;;;;;;;4675413;30;20507;-85
2021/07/20 00:12:46;;;;;;;10.27;6.65;;;;;;;;;;4677911;30;20034;-85
2021/07/20 00:15:12;;;;;;;11.65;7.20;;;;;;;;;;4674346;30;20087;-85
2021/07/20 00:17:40;;;;;;;9.50;6.13;;;;;;;;;;4679209;30;20072;-85
2021/07/20 00:20:06;;;;;;;10.38;6.80;;;;;;;;;;4679437;30;20180;-85
2021/07/20 00:22:32;;;;;;;11.43;7.32;;;;;;;;;;4680112;30;20427;-85
2021/07/20 00:24:57;;;;;;;12.27;7.47;;;;;;;;;;4680402;30;20041;-85
2021/07/20 00:27:23;;;;;;;11.40;6.80;;;;;;;;;;4675932;30;20045;-85
2021/07/20 00:29:48;;;;;;;12.50;6.85;;;;;;;;;;4669638;30;20511;-85
2021/07/20 00:32:14;;;;;;;12.18;7.15;;;;;;;;;;4674928;30;20041;-85
2021/07/20 00:34:40;;;;;;;12.18;7.05;;;;;;;;;;4670699;30;20125;-85
2021/07/20 00:37:06;;;;;;;15.93;7.32;;;;;;;;;;4681413;30;20467;-85
2021/07/20 00:39:32;;;;;;;13.00;7.13;;;;;;;;;;4679247;30;20041;-85
2021/07/20 00:41:57;;;;;;;12.02;7.43;;;;;;;;;;4693871;30;20037;-85
2021/07/20 00:44:23;;;;;;;13.48;7.25;;;;;;;;;;4691772;30;20042;-85
2021/07/20 00:46:49;;;;;;;12.27;7.25;;;;;;;;;;4669248;30;20129;-85
2021/07/20 00:49:14;;;;;;;12.27;7.20;;;;;;;;;;4676436;30;20123;-85
2021/07/20 00:51:40;;;;;;;13.25;7.72;;;;;;;;;;4684350;30;20032;-85
2021/07/20 00:54:05;;;;;;;12.80;7.22;;;;;;;;;;4672815;30;20057;-85
2021/07/20 00:56:32;;;;;;;12.00;7.07;;;;;;;;;;4669908;30;20088;-85
2021/07/20 00:58:58;;;;;;;12.15;7.22;;;;;;;;;;4690264;30;20030;-85
2021/07/20 01:01:24;;;;;;;11.98;7.20;;;;;;;;;;4671634;30;20507;-85
2021/07/20 01:03:50;;;;;;;14.90;7.43;;;;;;;;;;4669631;30;20041;-85
2021/07/20 01:06:18;;;;;;;12.20;7.10;;;;;;;;;;4688613;30;20105;-85
2021/07/20 01:08:44;;;;;;;14.63;7.68;;;;;;;;;;4695784;30;20068;-85
2021/07/20 01:11:10;;;;;;;14.18;7.10;;;;;;;;;;4693899;30;20077;-85
2021/07/20 01:13:37;;;;;;;12.27;7.32;;;;;;;;;;4675805;30;20115;-85
2021/07/20 01:16:04;;;;;;;11.75;7.05;;;;;;;;;;4679315;30;20130;-85
2021/07/20 01:18:29;;;;;;;12.07;7.30;;;;;;;;;;4679243;30;20034;-85
2021/07/20 01:20:55;;;;;;;11.02;6.68;;;;;;;;;;4668548;30;20452;-85
2021/07/20 01:23:38;;;;;;;11.73;6.68;;;;;;;;;;4667607;30;20040;-85
2021/07/20 01:26:05;;;;;;;13.43;7.10;;;;;;;;;;4679240;30;20558;-85
2021/07/20 01:28:31;;;;;;;13.43;7.30;;;;;;;;;;4674446;30;20388;-85
2021/07/20 01:31:02;;;;;;;13.02;7.47;;;;;;;;;;4682123;30;20030;-85
2021/07/20 01:33:30;;;;;;;13.00;7.55;;;;;;;;;;4689572;30;20122;-85
2021/07/20 01:35:58;;;;;;;12.38;7.07;;;;;;;;;;4678721;30;20037;-85
2021/07/20 01:38:24;;;;;;;12.48;7.38;;;;;;;;;;4694620;30;20111;-84
2021/07/20 01:40:54;;;;;;;13.45;7.25;;;;;;;;;;4675958;30;20112;-85
2021/07/20 01:43:24;;;;;;;13.68;7.25;;;;;;;;;;4687503;30;20041;-85
2021/07/20 01:45:54;;;;;;;13.43;7.43;;;;;;;;;;4687307;30;20045;-85
2021/07/20 01:48:21;;;;;;;15.35;7.97;;;;;;;;;;4672724;30;20033;-85
2021/07/20 01:50:47;;;;;;;12.98;7.68;;;;;;;;;;4669295;30;20458;-85
2021/07/20 01:53:13;;;;;;;13.43;7.75;;;;;;;;;;4668175;30;20033;-85
2021/07/20 01:55:39;;;;;;;11.82;7.32;;;;;;;;;;4667988;30;20052;-85
2021/07/20 01:58:04;;;;;;;15.10;8.07;;;;;;;;;;4674529;30;20037;-85
2021/07/20 02:00:30;;;;;;;16.15;7.90;;;;;;;;;;4695083;30;20549;-85
2021/07/20 02:08:47;;;;;;;14.50;7.38;;;;;;;;;;4668131;30;20100;-85
2021/07/20 02:11:22;;;;;;;;;;;;;;;;;;4679165;30;20216;-85
2021/07/20 02:13:52;;;;;;;11.93;7.00;;;;;;;;;;4686433;30;20002;-85
2021/07/20 02:16:23;;;;;;;11.18;6.88;;;;;;;;;;4674699;30;20058;-85
2021/07/20 02:18:58;;;;;;;12.38;7.47;;;;;;;;;;4677563;30;20034;-85
2021/07/20 02:21:24;;;;;;;13.38;7.63;;;;;;;;;;4680453;30;20484;-85
2021/07/20 02:23:51;;;;;;;13.35;7.45;;;;;;;;;;4678152;30;20116;-85
2021/07/20 02:26:18;;;;;;;12.88;7.50;;;;;;;;;;4679904;30;20099;-85
2021/07/20 02:28:43;;;;;;;13.93;7.93;;;;;;;;;;4670154;30;20038;-85
2021/07/20 02:31:10;;;;;;;13.65;7.65;;;;;;;;;;4665980;30;21306;-85
2021/07/20 02:33:36;;;;;;;13.05;7.80;;;;;;;;;;4668354;30;20415;-85
2021/07/20 02:36:04;;;;;;;13.13;7.63;;;;;;;;;;4674764;30;20128;-85
2021/07/20 02:38:30;;;;;;;14.40;8.13;;;;;;;;;;4684457;30;20034;-85
2021/07/20 02:40:57;;;;;;;13.68;7.45;;;;;;;;;;4673748;30;20037;-85
2021/07/20 02:43:24;;;;;;;13.43;7.65;;;;;;;;;;4675859;30;20488;-85
2021/07/20 02:45:50;;;;;;;12.73;7.20;;;;;;;;;;4667095;30;20030;-85
2021/07/20 02:48:17;;;;;;;12.55;6.97;;;;;;;;;;4681080;30;20449;-85
2021/07/20 02:50:43;;;;;;;12.60;7.85;;;;;;;;;;4677681;30;20068;-85
2021/07/20 02:53:11;;;;;;;15.30;8.32;;;;;;;;;;4666944;30;20048;-85
2021/07/20 02:55:38;;;;;;;14.48;7.75;;;;;;;;;;4692536;30;20037;-85
2021/07/20 02:58:04;;;;;;;13.02;7.72;;;;;;;;;;4667093;30;20095;-85
2021/07/20 03:00:31;;;;;;;14.82;8.32;;;;;;;;;;4670006;30;20049;-85
2021/07/20 03:02:56;;;;;;;14.18;7.95;;;;;;;;;;4685111;30;20141;-85
2021/07/20 03:05:22;;;;;;;15.57;8.50;;;;;;;;;;4667887;30;20133;-85
2021/07/20 03:07:57;;;;;;;12.27;7.03;;;;;;;;;;4663869;30;20037;-85
2021/07/20 03:10:29;;;;;;;13.73;7.00;;;;;;;;;;4672563;30;20057;-85
2021/07/20 03:13:00;;;;;;;14.07;8.07;;;;;;;;;;4670361;30;20048;-85
2021/07/20 03:15:26;;;;;;;15.88;8.52;;;;;;;;;;4668526;30;20058;-85
2021/07/20 03:17:54;;;;;;;14.73;8.27;;;;;;;;;;4673683;30;20112;-85
2021/07/20 03:20:20;;;;;;;13.95;7.55;;;;;;;;;;4673575;30;20042;-85
2021/07/20 03:22:46;;;;;;;13.60;7.85;;;;;;;;;;4675488;30;20096;-85
2021/07/20 03:25:13;;;;;;;17.33;8.65;;;;;;;;;;4676835;30;20041;-85
2021/07/20 03:27:40;;;;;;;13.70;7.63;;;;;;;;;;4678137;30;20492;-85
2021/07/20 03:30:07;;;;;;;13.13;7.43;;;;;;;;;;4664309;30;20116;-85
2021/07/20 03:32:33;;;;;;;13.70;7.85;;;;;;;;;;4675873;30;20377;-85
2021/07/20 03:34:59;;;;;;;13.40;7.70;;;;;;;;;;4671789;30;20042;-85
2021/07/20 03:37:26;;;;;;;16.83;8.20;;;;;;;;;;4666590;30;20056;-85
2021/07/20 03:39:53;;;;;;;13.55;7.82;;;;;;;;;;4678819;30;20033;-85
2021/07/20 03:42:20;;;;;;;14.82;8.13;;;;;;;;;;4669907;30;20038;-85
2021/07/20 03:44:46;;;;;;;13.77;7.57;;;;;;;;;;4689184;30;20479;-85
2021/07/20 03:47:14;;;;;;;15.18;8.20;;;;;;;;;;4668105;30;20121;-85
2021/07/20 03:49:41;;;;;;;13.90;7.90;;;;;;;;;;4692065;30;20033;-85
2021/07/20 03:52:08;;;;;;;12.18;7.15;;;;;;;;;;4681591;30;20125;-85
2021/07/20 03:54:34;;;;;;;15.13;7.68;;;;;;;;;;4671166;30;20062;-85
2021/07/20 03:57:02;;;;;;;13.18;7.68;;;;;;;;;;4673678;30;20076;-85
2021/07/20 03:59:30;;;;;;;14.20;8.20;;;;;;;;;;4693497;30;20451;-85
2021/07/20 04:01:58;;;;;;;12.13;7.88;;;;;;;;;;4678513;30;20030;-85
2021/07/20 04:04:26;;;;;;;14.95;7.75;;;;;;;;;;4676995;30;20048;-85
2021/07/20 04:06:53;;;;;;;16.00;8.15;;;;;;;;;;4687109;30;20049;-85
2021/07/20 04:09:20;;;;;;;16.08;7.82;;;;;;;;;;4669531;30;20041;-85
2021/07/20 04:11:46;;;;;;;16.13;8.02;;;;;;;;;;4671392;30;20037;-85
2021/07/20 04:14:12;;;;;;;14.30;8.30;;;;;;;;;;4667443;30;20038;-85
2021/07/20 04:16:40;;;;;;;16.23;8.20;;;;;;;;;;4669751;30;20061;-85
2021/07/20 04:19:05;;;;;;;14.38;8.02;;;;;;;;;;4674567;30;20045;-85
2021/07/20 04:21:31;;;;;;;15.55;7.40;;;;;;;;;;4678390;30;20069;-85
2021/07/20 04:23:58;;;;;;;13.40;7.90;;;;;;;;;;4672846;30;20038;-85
2021/07/20 04:26:24;;;;;;;15.73;8.27;;;;;;;;;;4670587;30;20065;-85
2021/07/20 04:28:50;;;;;;;16.10;8.55;;;;;;;;;;4671678;30;20037;-85
2021/07/20 04:31:18;;;;;;;14.55;7.78;;;;;;;;;;4670220;30;20441;-85
2021/07/20 04:33:46;;;;;;;15.63;8.00;;;;;;;;;;4675152;30;20030;-85
2021/07/20 04:36:14;;;;;;;15.90;8.80;;;;;;;;;;4674652;30;20108;-85
2021/07/20 04:38:40;;;;;;;16.73;8.40;;;;;;;;;;4671895;30;20053;-85
2021/07/20 04:41:05;;;;;;;16.45;8.23;;;;;;;;;;4676643;30;21737;-85
2021/07/20 04:43:31;;;;;;;14.00;8.15;;;;;;;;;;4672466;30;20041;-84
2021/07/20 04:45:57;;;;;;;14.13;8.82;;;;;;;;;;4680194;30;20053;-85
2021/07/20 04:48:23;;;;;;;14.90;8.45;;;;;;;;;;4672072;30;20037;-85
2021/07/20 04:50:51;;;;;;;17.10;9.25;;;;;;;;;;4688012;30;20038;-85
2021/07/20 04:53:17;;;;;;;17.63;8.98;;;;;;;;;;4690695;30;20034;-85
2021/07/20 04:55:45;;;;;;;17.38;9.35;;;;;;;;;;4680604;30;20038;-85
2021/07/20 04:58:12;;;;;;;16.65;8.48;;;;;;;;;;4680742;30;20407;-85
2021/07/20 05:00:38;;;;;;;16.83;8.80;;;;;;;;;;4694231;30;20092;-85
2021/07/20 05:03:05;;;;;;;15.88;9.25;;;;;;;;;;4669838;30;20037;-85
2021/07/20 05:05:37;;;;;;;20.17;10.07;;;;;;;;;;4668673;30;20127;-85
2021/07/20 05:08:03;;;;;;;17.27;9.15;;;;;;;;;;4688597;30;20046;-85
2021/07/20 05:10:29;;;;;;;15.18;7.78;;;;;;;;;;4665545;30;20037;-85
2021/07/20 05:12:54;;;;;;;17.45;8.65;;;;;;;;;;4678780;30;20040;-85
2021/07/20 05:15:20;;;;;;;15.55;8.80;;;;;;;;;;4668980;30;20064;-85
2021/07/20 05:17:47;;;;;;;16.63;8.68;;;;;;;;;;4687401;30;20038;-85
2021/07/20 05:20:16;;;;;;;18.33;9.00;;;;;;;;;;4686498;30;20045;-85
2021/07/20 05:22:43;;;;;;;16.38;9.23;;;;;;;;;;4673469;30;20068;-85
2021/07/20 05:25:10;;;;;;;17.25;9.15;;;;;;;;;;4667355;30;20038;-85
2021/07/20 05:27:38;;;;;;;16.95;9.13;;;;;;;;;;4668311;30;20042;-85
2021/07/20 05:30:08;;;;;;;17.73;9.63;;;;;;;;;;4696781;30;20124;-85
2021/07/20 05:32:43;;;;;;;16.38;9.77;;;;;;;;;;4685072;30;20037;-85
2021/07/20 05:35:13;;;;;;;17.90;9.80;;;;;;;;;;4671217;30;20077;-85
2021/07/20 05:37:40;;;;;;;18.58;9.90;;;;;;;;;;4684199;30;20046;-85
2021/07/20 05:40:15;;;;;;;17.13;9.25;;;;;;;;;;4667414;30;20034;-85
2021/07/20 05:42:42;;;;;;;19.67;10.35;;;;;;;;;;4677647;30;20073;-85
2021/07/20 05:45:09;;;;;;;20.13;9.07;;;;;;;;;;4677562;30;20045;-85
2021/07/20 05:47:36;;;;;;;16.20;9.45;;;;;;;;;;4668401;30;20034;-85
2021/07/20 05:50:05;;;;;;;16.05;8.93;;;;;;;;;;4667865;30;20389;-85
2021/07/20 05:52:31;;;;;;;13.77;8.05;;;;;;;;;;4671451;30;20038;-85
2021/07/20 05:54:57;;;;;;;15.20;7.88;;;;;;;;;;4669046;30;20049;-85
2021/07/20 05:57:27;;;;;;;15.18;7.93;;;;;;;;;;4664749;30;20042;-85
2021/07/20 05:59:53;;;;;;;15.48;7.55;;;;;;;;;;4683613;30;20150;-85
2021/07/20 06:02:19;;;;;;;14.65;7.40;;;;;;;;;;4670731;30;20037;-85
2021/07/20 06:04:45;;;;;;;14.63;7.72;;;;;;;;;;4676014;30;20044;-85
2021/07/20 06:07:13;;;;;;;14.15;7.65;;;;;;;;;;4667671;30;20036;-85
2021/07/20 06:09:41;;;;;;;12.40;7.10;;;;;;;;;;4669894;30;20508;-85
2021/07/20 06:12:08;;;;;;;13.85;7.90;;;;;;;;;;4680923;30;20083;-85
2021/07/20 06:14:36;;;;;;;11.48;7.18;;;;;;;;;;4670536;30;20050;-85
2021/07/20 06:17:02;;;;;;;13.00;7.65;;;;;;;;;;4675934;30;20084;-85
2021/07/20 06:19:27;;;;;;;12.23;6.55;;;;;;;;;;4664503;30;20061;-85
2021/07/20 06:21:54;;;;;;;14.00;7.45;;;;;;;;;;4668736;30;20072;-85
2021/07/20 06:24:20;;;;;;;13.00;7.43;;;;;;;;;;4669644;30;20050;-85
2021/07/20 06:26:46;;;;;;;14.20;7.95;;;;;;;;;;4666302;30;20048;-85
2021/07/20 06:29:12;;;;;;;15.32;7.80;;;;;;;;;;4669712;30;20038;-85
2021/07/20 06:31:39;;;;;;;14.25;7.93;;;;;;;;;;4667478;30;20391;-85
2021/07/20 06:34:05;;;;;;;12.55;7.28;;;;;;;;;;4684596;30;20550;-85
2021/07/20 06:36:33;;;;;;;16.05;8.35;;;;;;;;;;4678747;30;20045;-86
2021/07/20 06:38:59;;;;;;;13.05;7.60;;;;;;;;;;4659046;30;20466;-85
2021/07/20 06:41:26;;;;;;;12.88;7.95;;;;;;;;;;4671592;30;20176;-84
2021/07/20 06:43:52;;;;;;;13.40;7.45;;;;;;;;;;4661152;30;20045;-84
2021/07/20 06:46:22;;;;;;;11.70;7.43;;;;;;;;;;4702456;30;20458;-84
2021/07/20 06:48:48;;;;;;;14.95;7.15;;;;;;;;;;4702488;30;20044;-83
2021/07/20 06:51:13;;;;;;;12.80;7.03;;;;;;;;;;4700600;30;20029;-83
2021/07/20 06:53:39;;;;;;;11.88;6.70;;;;;;;;;;4674024;30;20037;-84
2021/07/20 06:56:07;;;;;;;11.95;6.40;;;;;;;;;;4668787;30;20074;-84
2021/07/20 06:58:34;;;;;;;10.48;5.60;;;;;;;;;;4670164;30;20038;-84
2021/07/20 07:01:02;;;;;;;12.13;6.57;;;;;;;;;;4673971;30;20092;-84
2021/07/20 07:03:42;;;;;;;11.93;6.60;;;;;;;;;;4679252;30;20025;-84
2021/07/20 07:06:10;;;;;;;14.07;6.85;;;;;;;;;;4687459;30;20107;-84
2021/07/20 07:08:37;;;;;;;12.50;7.25;;;;;;;;;;4687169;30;20495;-84
2021/07/20 07:11:03;;;;;;;12.02;6.55;;;;;;;;;;4673963;30;20447;-84
2021/07/20 07:13:29;;;;;;;11.88;6.18;;;;;;;;;;4673774;30;20033;-84
2021/07/20 07:15:57;;;;;;;11.52;6.18;;;;;;;;;;4703812;30;20495;-84
2021/07/20 07:18:24;;;;;;;12.25;6.40;;;;;;;;;;4682907;30;20551;-84
2021/07/20 07:20:50;;;;;;;11.40;5.47;;;;;;;;;;4682486;30;20060;-84
2021/07/20 07:23:18;;;;;;;11.43;6.28;;;;;;;;;;4677952;30;20038;-84
2021/07/20 07:25:49;;;;;;;10.98;5.95;;;;;;;;;;4676468;30;20038;-84
2021/07/20 07:28:18;;;;;;;9.98;5.88;;;;;;;;;;4681370;30;20037;-84
2021/07/20 07:30:43;;;;;;;13.10;6.40;;;;;;;;;;4685717;30;20602;-84
2021/07/20 07:33:10;;;;;;;9.63;6.00;;;;;;;;;;4683770;30;20201;-84
2021/07/20 07:35:36;;;;;;;10.98;6.20;;;;;;;;;;4681003;30;20029;-84
2021/07/20 07:38:03;;;;;;;13.13;6.28;;;;;;;;;;4684754;30;20041;-84
2021/07/20 07:40:29;;;;;;;12.88;6.38;;;;;;;;;;4691406;30;20038;-84
2021/07/20 07:42:57;;;;;;;10.18;6.22;;;;;;;;;;4682926;30;20040;-85
2021/07/20 07:45:23;;;;;;;12.07;6.50;;;;;;;;;;4698532;30;20392;-84
2021/07/20 07:47:49;;;;;;;11.60;6.43;;;;;;;;;;4674953;30;20040;-84
2021/07/20 07:50:15;;;;;;;10.30;6.10;;;;;;;;;;4683502;30;20557;-84
2021/07/20 07:52:41;;;;;;;10.15;6.40;;;;;;;;;;4687995;30;20029;-84
2021/07/20 07:55:11;;;;;;;11.68;6.00;;;;;;;;;;4695375;30;20034;-84
2021/07/20 07:57:40;;;;;;;10.13;6.05;;;;;;;;;;4667413;30;20121;-84
2021/07/20 08:00:07;;;;;;;11.85;6.47;;;;;;;;;;4686304;30;20041;-84
2021/07/20 08:02:35;;;;;;;10.82;6.57;;;;;;;;;;4672186;30;20120;-84
2021/07/20 08:05:02;;;;;;;12.02;6.60;;;;;;;;;;4671938;30;20491;-84
2021/07/20 08:07:28;;;;;;;12.48;6.93;;;;;;;;;;4696055;30;20503;-84
2021/07/20 08:09:56;;;;;;;11.10;6.60;;;;;;;;;;4671057;30;20073;-84
2021/07/20 08:12:23;;;;;;;12.52;6.22;;;;;;;;;;4695594;30;20069;-84
2021/07/20 08:14:49;;;;;;;12.23;6.68;;;;;;;;;;4678846;30;20410;-84
2021/07/20 08:17:15;;;;;;;11.00;6.70;;;;;;;;;;4688385;30;20061;-84
2021/07/20 08:19:41;;;;;;;11.25;6.55;;;;;;;;;;4681450;30;20091;-84
2021/07/20 08:22:11;;;;;;;11.25;6.53;;;;;;;;;;4667661;30;20042;-84
2021/07/20 08:24:42;;;;;;;9.93;6.25;;;;;;;;;;4678249;30;20042;-83
2021/07/20 08:27:15;;;;;;;9.63;5.95;;;;;;;;;;4677621;30;20689;-84
2021/07/20 08:29:44;;;;;;;10.68;6.63;;;;;;;;;;4684102;30;20044;-84
2021/07/20 08:32:17;;;;;;;10.32;6.60;;;;;;;;;;4680378;30;20058;-84
2021/07/20 08:34:51;;;;;;;11.05;6.53;;;;;;;;;;4673051;30;20042;-84
2021/07/20 08:37:18;;;;;;;11.05;6.70;;;;;;;;;;4686741;30;20034;-84
2021/07/20 08:39:46;;;;;;;9.32;6.13;;;;;;;;;;4672219;30;20076;-84
2021/07/20 08:42:31;;;;;;;10.10;6.25;;;;;;;;;;4685794;30;20396;-83
2021/07/20 08:45:12;;;;;;;9.73;5.93;;;;;;;;;;4678196;30;20510;-83
2021/07/20 08:47:40;;;;;;;10.88;6.57;;;;;;;;;;4682426;30;20086;-83
2021/07/20 08:50:25;;;;;;;10.68;6.22;;;;;;;;;;4687051;30;20036;-84
2021/07/20 08:53:07;;;;;;;10.82;6.40;;;;;;;;;;4693462;30;20087;-84
2021/07/20 08:55:43;;;;;;;13.50;7.18;;;;;;;;;;4677845;30;20092;-84
2021/07/20 08:58:31;;;;;;;11.85;6.45;;;;;;;;;;4677573;30;20038;-84
2021/07/20 09:01:12;;;;;;;10.10;6.47;;;;;;;;;;4676895;30;20042;-84
2021/07/20 09:04:02;;;;;;;10.55;6.18;;;;;;;;;;4671016;30;20502;-84
2021/07/20 09:06:38;;;;;;;10.90;6.07;;;;;;;;;;4672170;30;20065;-84
2021/07/20 09:09:24;;;;;;;11.02;6.68;;;;;;;;;;4686796;30;20575;-84
2021/07/20 09:12:17;;;;;;;10.68;6.35;;;;;;;;;;4675780;30;20074;-84
2021/07/20 09:15:07;;;;;;;13.00;6.70;;;;;;;;;;4687770;30;20394;-84
2021/07/20 09:18:01;;;;;;;10.20;6.07;;;;;;;;;;4673159;30;20144;-84
2021/07/20 09:20:33;;;;;;;9.38;6.47;;;;;;;;;;4673313;30;20050;-84
2021/07/20 09:23:08;;;;;;;10.18;6.43;;;;;;;;;;4688610;30;20029;-84
2021/07/20 09:25:42;;;;;;;10.25;6.53;;;;;;;;;;4693863;30;20483;-85
2021/07/20 09:28:46;;;;;;;10.73;7.40;;;;;;;;;;4671802;30;20488;-85
2021/07/20 09:31:37;;;;;;;9.82;5.95;;;;;;;;;;4652538;30;20068;-85
2021/07/20 09:34:25;;;;;;;11.10;6.45;;;;;;;;;;4664046;30;20554;-85
2021/07/20 09:37:06;;;;;;;11.27;6.72;;;;;;;;;;4687572;30;20171;-85
2021/07/20 09:40:08;;;;;;;11.00;6.22;;;;;;;;;;4682802;30;20053;-84
2021/07/20 09:42:44;;;;;;;10.32;6.63;;;;;;;;;;4685441;30;20038;-84
2021/07/20 09:45:19;;;;;;;10.52;6.50;;;;;;;;;;4675968;30;20068;-84
2021/07/20 09:48:28;;;;;;;10.32;6.80;;;;;;;;;;4688635;30;20036;-86
2021/07/20 09:51:27;;;;;;;10.38;6.20;;;;;;;;;;4690910;30;20229;-85
2021/07/20 09:54:22;;;;;;;11.43;6.50;;;;;;;;;;4691735;30;20091;-85
2021/07/20 09:57:11;;;;;;;10.35;6.70;;;;;;;;;;4682881;30;20038;-85
2021/07/20 10:00:08;;;;;;;10.02;6.30;;;;;;;;;;4681146;30;20083;-85
2021/07/20 10:02:46;;;;;;;11.48;6.70;;;;;;;;;;4677288;30;20041;-85
2021/07/20 10:05:11;;;;;;;10.57;6.60;;;;;;;;;;4679600;30;20135;-85
2021/07/20 10:07:46;;;;;;;13.68;7.40;;;;;;;;;;4692924;30;20116;-85
2021/07/20 10:10:25;;;;;;;11.65;7.13;;;;;;;;;;4670120;30;20044;-85
2021/07/20 10:13:20;;;;;;;11.15;6.93;;;;;;;;;;4676395;30;20044;-85
2021/07/20 10:15:57;;;;;;;10.13;6.50;;;;;;;;;;4683773;30;20483;-84
2021/07/20 10:18:33;;;;;;;10.13;6.22;;;;;;;;;;4689158;30;20145;-84
2021/07/20 10:21:01;;;;;;;15.25;6.80;;;;;;;;;;4673142;30;20094;-84
2021/07/20 10:23:50;;;;;;;11.35;6.78;;;;;;;;;;4673994;30;20030;-85
2021/07/20 10:26:19;;;;;;;11.48;6.90;;;;;;;;;;4674588;30;20099;-86
2021/07/20 10:28:47;;;;;;;9.70;6.57;;;;;;;;;;4696886;30;20525;-85
2021/07/20 10:31:17;;;;;;;11.25;6.72;;;;;;;;;;4675424;30;21857;-85
2021/07/20 10:34:15;;;;;;;10.55;7.00;;;;;;;;;;4674053;30;20044;-85
2021/07/20 10:36:53;;;;;;;10.52;6.32;;;;;;;;;;4677939;30;20089;-85
2021/07/20 10:39:21;;;;;;;12.88;6.95;;;;;;;;;;4672582;30;20125;-84
2021/07/20 10:42:07;;;;;;;11.18;6.95;;;;;;;;;;4679703;30;20033;-85
2021/07/20 10:44:38;;;;;;;11.95;7.28;;;;;;;;;;4682919;30;20076;-85
2021/07/20 10:47:06;;;;;;;10.27;7.13;;;;;;;;;;4687840;30;20042;-85
2021/07/20 10:49:34;;;;;;;11.50;7.30;;;;;;;;;;4678131;30;20061;-85
2021/07/20 10:52:10;;;;;;;9.52;6.50;;;;;;;;;;4672388;30;20484;-84
2021/07/20 10:54:45;;;;;;;11.07;7.00;;;;;;;;;;4669389;30;20077;-85
2021/07/20 10:57:22;;;;;;;10.60;6.97;;;;;;;;;;4678717;30;20507;-84
2021/07/20 11:00:06;;;;;;;10.75;6.97;;;;;;;;;;4684877;30;20041;-84
2021/07/20 11:02:53;;;;;;;11.65;7.20;;;;;;;;;;4680101;30;20042;-84
2021/07/20 11:05:20;;;;;;;9.63;7.00;;;;;;;;;;4690783;30;20026;-84
2021/07/20 11:07:52;;;;;;;12.15;7.00;;;;;;;;;;4673550;30;20121;-84
2021/07/20 11:10:22;;;;;;;12.10;6.93;;;;;;;;;;4674474;30;20061;-84
2021/07/20 11:12:54;;;;;;;11.98;7.47;;;;;;;;;;4673391;30;20041;-85
2021/07/20 11:15:21;;;;;;;11.68;6.93;;;;;;;;;;4687116;30;20094;-85
2021/07/20 11:17:49;;;;;;;12.70;7.32;;;;;;;;;;4681954;30;20462;-84
2021/07/20 11:20:19;;;;;;;12.65;6.93;;;;;;;;;;4695606;30;20057;-84
2021/07/20 11:22:46;;;;;;;10.73;6.82;;;;;;;;;;4679654;30;20555;-85
2021/07/20 11:25:14;;;;;;;11.82;7.50;;;;;;;;;;4683238;30;20041;-85
2021/07/20 11:27:42;;;;;;;10.77;7.05;;;;;;;;;;4664598;30;20030;-84
2021/07/20 11:30:17;;;;;;;11.60;7.65;;;;;;;;;;4687587;30;20049;-84
2021/07/20 11:33:04;;;;;;;12.70;7.72;;;;;;;;;;4674212;30;20040;-85
2021/07/20 11:35:35;;;;;;;13.10;7.72;;;;;;;;;;4685748;30;20034;-85
2021/07/20 11:38:06;;;;;;;12.13;7.63;;;;;;;;;;4688389;30;20030;-85
2021/07/20 11:40:48;;;;;;;13.15;7.35;;;;;;;;;;4673277;30;20034;-85
2021/07/20 11:43:19;;;;;;;11.57;6.78;;;;;;;;;;4690305;30;20041;-84
2021/07/20 11:46:00;;;;;;;10.98;7.25;;;;;;;;;;4677066;30;20380;-85
2021/07/20 11:48:33;;;;;;;11.48;7.18;;;;;;;;;;4672866;30;20038;-85
2021/07/20 11:51:19;;;;;;;10.43;7.32;;;;;;;;;;4687137;30;20030;-85
2021/07/20 11:54:11;;;;;;;12.52;7.40;;;;;;;;;;4677029;30;20057;-85
2021/07/20 11:56:55;;;;;;;13.65;7.35;;;;;;;;;;4686564;30;20478;-85
2021/07/20 11:59:58;;;;;;;13.00;7.50;;;;;;;;;;4694909;30;20072;-84
2021/07/20 12:02:54;;;;;;;11.20;6.95;;;;;;;;;;4692399;30;20045;-84
2021/07/20 12:05:32;;;;;;;11.82;7.00;;;;;;;;;;4698381;30;20407;-84
2021/07/20 12:08:16;;;;;;;12.30;8.30;;;;;;;;;;4683190;30;20826;-85
2021/07/20 12:11:10;;;;;;;12.02;7.75;;;;;;;;;;4671206;30;20100;-84
2021/07/20 12:13:36;;;;;;;;;;;;;;;;;;4674315;30;20087;-86
2021/07/20 12:16:10;;;;;;;13.15;6.80;;;;;;;;;;4685328;30;19919;-85
2021/07/20 12:18:54;;;;;;;11.65;7.57;;;;;;;;;;4678939;30;20103;-85
2021/07/20 12:21:22;;;;;;;12.13;8.00;;;;;;;;;;4685359;30;20494;-85
2021/07/20 12:23:51;;;;;;;14.93;7.72;;;;;;;;;;4688425;30;20528;-85
2021/07/20 12:26:19;;;;;;;12.63;8.02;;;;;;;;;;4673054;30;20034;-85
2021/07/20 12:28:47;;;;;;;11.13;7.45;;;;;;;;;;4673235;30;20049;-85
2021/07/20 12:31:13;;;;;;;12.48;7.78;;;;;;;;;;4680914;30;20537;-85
2021/07/20 12:33:43;;;;;;;10.77;7.60;;;;;;;;;;4664830;30;20046;-85
2021/07/20 12:36:11;;;;;;;13.73;7.78;;;;;;;;;;4680128;30;20092;-85
2021/07/20 12:38:36;;;;;;;13.77;8.25;;;;;;;;;;4670556;30;20133;-85
2021/07/20 12:41:14;;;;;;;11.73;7.68;;;;;;;;;;4664750;30;20124;-85
2021/07/20 12:43:41;;;;;;;12.75;8.27;;;;;;;;;;4687791;30;20510;-86
2021/07/20 12:46:18;;;;;;;13.07;8.23;;;;;;;;;;4671487;30;20057;-86
2021/07/20 12:48:46;;;;;;;12.82;7.97;;;;;;;;;;4681538;30;20064;-85
2021/07/20 12:51:14;;;;;;;14.45;8.52;;;;;;;;;;4674919;30;20551;-86
2021/07/20 12:53:42;;;;;;;11.63;7.93;;;;;;;;;;4660534;30;20038;-86
2021/07/20 12:56:28;;;;;;;13.35;8.68;;;;;;;;;;4671146;30;20034;-85
2021/07/20 12:59:00;;;;;;;12.45;8.65;;;;;;;;;;4671549;30;20038;-85
2021/07/20 13:01:27;;;;;;;12.95;8.80;;;;;;;;;;4675006;30;20057;-85
2021/07/20 13:03:56;;;;;;;12.38;7.53;;;;;;;;;;4655065;30;20434;-85
2021/07/20 13:06:22;;;;;;;11.77;7.88;;;;;;;;;;4695987;30;20424;-85
2021/07/20 13:08:52;;;;;;;11.73;8.18;;;;;;;;;;4685975;30;20053;-85
2021/07/20 13:11:18;;;;;;;12.80;8.25;;;;;;;;;;4691474;30;20373;-85
2021/07/20 13:13:45;;;;;;;12.70;8.40;;;;;;;;;;4664593;30;20041;-85
2021/07/20 13:16:16;;;;;;;13.20;8.13;;;;;;;;;;4667932;30;20052;-85
2021/07/20 13:18:43;;;;;;;11.93;7.78;;;;;;;;;;4673127;30;20062;-85
2021/07/20 13:21:16;;;;;;;16.92;8.52;;;;;;;;;;4668642;30;20046;-85
2021/07/20 13:23:43;;;;;;;14.43;8.32;;;;;;;;;;4675333;30;20065;-85
2021/07/20 13:26:09;;;;;;;11.50;8.05;;;;;;;;;;4664468;30;20029;-85
2021/07/20 13:28:35;;;;;;;11.85;8.38;;;;;;;;;;4672536;30;20057;-85
2021/07/20 13:31:05;;;;;;;12.88;7.38;;;;;;;;;;4665392;30;20092;-85
2021/07/20 13:33:30;;;;;;;13.40;8.35;;;;;;;;;;4675869;30;20057;-85
2021/07/20 13:35:58;;;;;;;12.70;8.98;;;;;;;;;;4665964;30;20077;-84
2021/07/20 13:38:31;;;;;;;10.77;8.05;;;;;;;;;;4670352;30;20449;-85
2021/07/20 13:40:58;;;;;;;11.27;7.97;;;;;;;;;;4673988;30;20089;-85
2021/07/20 13:43:26;;;;;;;10.40;7.55;;;;;;;;;;4675722;30;20139;-85
2021/07/20 13:45:53;;;;;;;13.63;8.30;;;;;;;;;;4671115;30;20092;-85
2021/07/20 13:48:21;;;;;;;12.10;8.60;;;;;;;;;;4682290;30;20121;-85
2021/07/20 13:50:50;;;;;;;11.10;8.05;;;;;;;;;;4670859;30;20026;-85
2021/07/20 13:53:26;;;;;;;12.25;7.82;;;;;;;;;;4668560;30;20034;-85
2021/07/20 13:56:13;;;;;;;11.05;7.60;;;;;;;;;;4689388;30;20395;-84
2021/07/20 13:58:42;;;;;;;10.80;7.32;;;;;;;;;;4678509;30;20065;-84
2021/07/20 14:01:08;;;;;;;12.27;7.80;;;;;;;;;;4675269;30;20815;-84
2021/07/20 14:03:35;;;;;;;10.88;7.53;;;;;;;;;;4671237;30;20042;-84
2021/07/20 14:06:01;;;;;;;13.43;7.50;;;;;;;;;;4691174;30;20537;-85
2021/07/20 14:08:27;;;;;;;11.57;7.60;;;;;;;;;;4673254;30;20038;-85
2021/07/20 14:10:56;;;;;;;11.55;7.60;;;;;;;;;;4662231;30;20033;-84
2021/07/20 14:13:25;;;;;;;11.27;7.60;;;;;;;;;;4674920;30;20048;-84
2021/07/20 14:15:52;;;;;;;10.90;7.07;;;;;;;;;;4660018;30;20034;-84
2021/07/20 14:18:18;;;;;;;10.50;7.50;;;;;;;;;;4670082;30;20089;-84
2021/07/20 14:20:46;;;;;;;14.77;8.13;;;;;;;;;;4673985;30;20073;-84
2021/07/20 14:23:11;;;;;;;11.52;7.97;;;;;;;;;;4680227;30;20040;-84
2021/07/20 14:25:49;;;;;;;10.68;7.75;;;;;;;;;;4659835;30;20116;-84
2021/07/20 14:28:17;;;;;;;11.93;7.57;;;;;;;;;;4672057;30;20033;-84
2021/07/20 14:30:52;;;;;;;11.55;7.75;;;;;;;;;;4676289;30;20041;-84
2021/07/20 14:33:20;;;;;;;11.27;7.40;;;;;;;;;;4680616;30;20044;-83
2021/07/20 14:35:46;;;;;;;10.25;7.60;;;;;;;;;;4692793;30;20507;-84
2021/07/20 14:38:15;;;;;;;13.85;8.13;;;;;;;;;;4673345;30;20037;-84
2021/07/20 14:40:41;;;;;;;11.93;8.40;;;;;;;;;;4675843;30;20048;-85
2021/07/20 14:43:09;;;;;;;11.18;8.38;;;;;;;;;;4647054;30;20042;-84
2021/07/20 14:45:37;;;;;;;12.40;8.02;;;;;;;;;;4664399;30;20038;-85
2021/07/20 14:48:08;;;;;;;11.43;7.43;;;;;;;;;;4690988;30;20030;-84
2021/07/20 14:50:41;;;;;;;10.98;7.60;;;;;;;;;;4669586;30;20046;-84
2021/07/20 14:53:06;;;;;;;11.40;7.88;;;;;;;;;;4669913;30;20034;-84
2021/07/20 14:55:33;;;;;;;9.88;7.07;;;;;;;;;;4669939;30;20060;-84